Time;durP1;ratioP1;P1;durP2;ratioP2;P2;SDS_P1;SDS_P2;PMS_P1;PMS_P2;Temp;Humidity;BMP_temperature;BMP_pressure;BME280_temperature;BME280_humidity;BME280_pressure;Samples;Min_cycle;Max_cycle;Signal;HPM_P1;HPM_P2
2021/04/22 00:01:51;;;;;;;16.63;3.08;;;5.20;88.80;;;;;;5002313;28;20462;-37
2021/04/22 00:04:17;;;;;;;16.77;2.90;;;5.20;88.90;;;;;;5000652;28;20073;-35
2021/04/22 00:06:43;;;;;;;19.27;3.90;;;5.10;89.10;;;;;;5005377;28;20018;-37
2021/04/22 00:09:09;;;;;;;21.27;3.72;;;5.10;89.20;;;;;;4997942;28;20062;-38
2021/04/22 00:11:36;;;;;;;19.23;4.32;;;5.00;89.40;;;;;;5006298;28;20022;-38
2021/04/22 00:14:05;;;;;;;18.35;3.72;;;5.00;89.40;;;;;;4996289;28;20084;-37
2021/04/22 00:16:31;;;;;;;13.77;3.33;;;5.00;89.70;;;;;;5006508;28;20053;-40
2021/04/22 00:18:57;;;;;;;18.58;3.83;;;5.00;89.80;;;;;;4996914;28;20061;-39
2021/04/22 00:21:22;;;;;;;17.73;3.50;;;4.90;89.90;;;;;;5007324;28;20390;-37
2021/04/22 00:23:48;;;;;;;16.13;3.53;;;4.90;90.10;;;;;;4994962;28;20030;-38
2021/04/22 00:26:14;;;;;;;25.00;4.63;;;4.90;90.10;;;;;;5007772;28;20025;-35
2021/04/22 00:28:39;;;;;;;23.50;4.65;;;4.80;90.20;;;;;;4994826;28;20077;-33
2021/04/22 00:31:05;;;;;;;20.20;4.63;;;4.80;90.30;;;;;;5007504;28;20617;-37
2021/04/22 00:33:30;;;;;;;23.65;4.43;;;4.70;90.40;;;;;;4996590;28;20029;-38
2021/04/22 00:35:56;;;;;;;21.40;5.13;;;4.70;90.50;;;;;;5004672;28;20453;-37
2021/04/22 00:38:21;;;;;;;23.38;4.45;;;4.70;90.60;;;;;;5000155;28;20038;-35
2021/04/22 00:40:51;;;;;;;25.70;4.30;;;4.70;90.70;;;;;;5002161;28;20037;-36
2021/04/22 00:43:20;;;;;;;20.35;4.47;;;4.60;90.80;;;;;;5001096;28;20623;-35
2021/04/22 00:45:47;;;;;;;16.58;4.15;;;4.60;90.90;;;;;;5000774;28;20054;-36
2021/04/22 00:48:16;;;;;;;24.73;5.78;;;4.60;91.00;;;;;;5003654;28;20084;-35
2021/04/22 00:50:43;;;;;;;23.15;4.57;;;4.50;91.00;;;;;;4998611;28;20675;-38
2021/04/22 00:53:09;;;;;;;27.52;5.00;;;4.50;91.20;;;;;;5005782;28;20357;-34
2021/04/22 00:55:35;;;;;;;19.42;3.63;;;4.50;91.20;;;;;;4996841;28;20073;-37
2021/04/22 00:58:04;;;;;;;14.98;4.57;;;4.50;91.30;;;;;;5004584;28;20025;-37
2021/04/22 01:00:32;;;;;;;29.27;5.15;;;4.40;91.30;;;;;;4998596;28;20033;-37
2021/04/22 01:02:59;;;;;;;19.58;4.18;;;4.40;91.30;;;;;;5005761;28;20050;-33
2021/04/22 01:05:32;;;;;;;16.23;4.00;;;4.40;91.40;;;;;;4994753;28;20441;-37
2021/04/22 01:07:57;;;;;;;20.23;4.05;;;4.40;91.40;;;;;;5007118;28;20033;-36
2021/04/22 01:10:24;;;;;;;22.08;4.32;;;4.40;91.40;;;;;;4993944;28;20554;-32
2021/04/22 01:12:49;;;;;;;15.90;3.90;;;4.40;91.40;;;;;;5006509;28;20018;-38
2021/04/22 01:15:21;;;;;;;14.55;3.67;;;4.30;91.40;;;;;;4994922;28;20037;-35
2021/04/22 01:17:49;;;;;;;15.30;4.47;;;4.30;91.50;;;;;;5006066;28;20026;-38
2021/04/22 01:20:28;;;;;;;19.80;4.45;;;4.30;91.60;;;;;;4995108;28;20100;-38
2021/04/22 01:22:55;;;;;;;16.92;4.40;;;4.30;91.60;;;;;;4987102;28;20088;-36
2021/04/22 01:25:30;;;;;;;24.92;5.45;;;4.30;91.60;;;;;;4997379;28;20105;-37
2021/04/22 01:27:59;;;;;;;19.88;5.18;;;4.30;91.70;;;;;;4986826;28;20124;-37
2021/04/22 01:30:31;;;;;;;25.40;4.80;;;4.20;91.70;;;;;;4996818;28;20080;-36
2021/04/22 01:32:57;;;;;;;17.50;4.20;;;4.20;91.80;;;;;;4987783;28;20573;-33
2021/04/22 01:35:32;;;;;;;21.88;4.30;;;4.20;91.90;;;;;;4994940;28;20732;-38
2021/04/22 01:37:59;;;;;;;21.42;4.78;;;4.20;91.90;;;;;;4989264;28;20061;-36
2021/04/22 01:40:25;;;;;;;17.15;4.68;;;4.10;92.00;;;;;;4993156;28;20018;-38
2021/04/22 01:42:51;;;;;;;21.55;4.82;;;4.10;92.10;;;;;;4991072;28;20502;-36
2021/04/22 01:45:17;;;;;;;18.95;3.92;;;4.10;92.20;;;;;;4991308;28;20018;-38
2021/04/22 01:47:44;;;;;;;17.70;4.95;;;4.10;92.20;;;;;;4993456;28;20492;-36
2021/04/22 01:50:20;;;;;;;24.17;6.03;;;4.10;92.30;;;;;;4989268;28;20019;-41
2021/04/22 01:52:46;;;;;;;29.25;6.22;;;4.10;92.40;;;;;;4994639;28;20038;-38
2021/04/22 01:55:15;;;;;;;22.05;5.20;;;4.10;92.50;;;;;;4988156;28;20025;-37
2021/04/22 01:57:44;;;;;;;24.20;4.63;;;4.00;92.50;;;;;;4995904;28;20040;-38
2021/04/22 02:00:16;;;;;;;15.85;4.53;;;4.00;92.60;;;;;;5000514;28;20069;-38
2021/04/22 02:02:42;;;;;;;17.30;3.97;;;4.00;92.60;;;;;;4997110;28;20042;-40
2021/04/22 02:05:10;;;;;;;15.95;4.88;;;4.00;92.60;;;;;;4987752;28;20049;-38
2021/04/22 02:07:36;;;;;;;17.15;4.53;;;4.00;92.60;;;;;;4996898;28;20068;-37
2021/04/22 02:10:05;;;;;;;18.92;4.80;;;3.90;92.60;;;;;;4986349;28;20057;-38
2021/04/22 02:12:31;;;;;;;17.65;4.07;;;3.90;92.70;;;;;;4993008;28;20022;-37
2021/04/22 02:14:56;;;;;;;17.27;3.88;;;3.90;92.60;;;;;;5005333;28;20084;-37
2021/04/22 02:17:22;;;;;;;17.92;4.95;;;3.90;92.70;;;;;;4992626;28;20154;-34
2021/04/22 02:19:48;;;;;;;24.08;5.80;;;3.90;92.70;;;;;;5005109;28;20124;-38
2021/04/22 02:22:13;;;;;;;25.10;5.32;;;3.90;92.80;;;;;;4994624;28;20058;-37
2021/04/22 02:24:41;;;;;;;20.10;5.03;;;3.80;92.80;;;;;;5003732;28;20111;-38
2021/04/22 02:27:08;;;;;;;16.25;4.85;;;3.90;92.90;;;;;;4996585;28;20034;-38
2021/04/22 02:29:33;;;;;;;23.08;5.55;;;3.80;92.90;;;;;;5001581;28;20048;-37
2021/04/22 02:32:00;;;;;;;21.17;5.18;;;3.90;93.00;;;;;;4998991;28;20034;-39
2021/04/22 02:34:25;;;;;;;28.88;4.72;;;3.80;93.00;;;;;;4999156;28;20030;-39
2021/04/22 02:36:51;;;;;;;19.85;4.80;;;3.80;93.00;;;;;;5001252;28;20018;-39
2021/04/22 02:39:16;;;;;;;19.10;4.25;;;3.80;93.00;;;;;;4996784;28;20022;-38
2021/04/22 02:41:41;;;;;;;15.85;4.22;;;3.80;93.10;;;;;;5003735;28;20029;-37
2021/04/22 02:44:07;;;;;;;12.63;3.92;;;3.70;93.00;;;;;;4994048;28;20045;-37
2021/04/22 02:46:33;;;;;;;18.88;4.95;;;3.70;93.00;;;;;;5003531;28;20108;-39
2021/04/22 02:48:58;;;;;;;14.93;4.53;;;3.70;93.40;;;;;;4993731;28;20033;-39
2021/04/22 02:51:24;;;;;;;20.25;4.32;;;3.70;93.30;;;;;;5005100;28;20121;-37
2021/04/22 02:53:49;;;;;;;16.38;3.85;;;3.70;93.20;;;;;;4992585;28;20022;-34
2021/04/22 02:56:15;;;;;;;12.85;4.35;;;3.70;93.20;;;;;;4991407;28;20084;-36
2021/04/22 02:58:40;;;;;;;20.80;5.40;;;3.70;93.20;;;;;;5000011;28;20030;-37
2021/04/22 03:01:06;;;;;;;24.98;5.60;;;3.70;93.20;;;;;;4997436;28;20358;-37
2021/04/22 03:03:31;;;;;;;23.65;6.53;;;3.70;93.30;;;;;;4994131;28;20054;-35
2021/04/22 03:05:57;;;;;;;21.35;5.38;;;3.70;93.30;;;;;;5002660;28;20038;-34
2021/04/22 03:08:24;;;;;;;24.15;6.10;;;3.70;93.40;;;;;;4997596;28;20042;-36
2021/04/22 03:10:49;;;;;;;21.85;5.45;;;3.70;93.50;;;;;;5000260;28;20046;-35
2021/04/22 03:13:15;;;;;;;29.00;5.40;;;3.70;93.50;;;;;;4999606;28;20060;-35
2021/04/22 03:15:42;;;;;;;18.70;5.45;;;3.70;93.50;;;;;;4997708;28;20022;-38
2021/04/22 03:18:08;;;;;;;14.98;4.93;;;3.70;93.60;;;;;;5001636;28;20124;-34
2021/04/22 03:20:33;;;;;;;12.98;4.25;;;3.70;93.60;;;;;;4995491;28;20116;-35
2021/04/22 03:22:59;;;;;;;18.95;4.57;;;3.70;93.50;;;;;;5003321;28;20034;-38
2021/04/22 03:25:26;;;;;;;18.90;4.90;;;3.70;93.50;;;;;;4993516;28;20036;-38
2021/04/22 03:27:53;;;;;;;12.60;4.03;;;3.70;93.50;;;;;;5005285;28;20038;-36
2021/04/22 03:30:26;;;;;;;10.02;3.42;;;3.70;93.50;;;;;;4997880;28;20030;-35
2021/04/22 03:32:52;;;;;;;16.95;4.45;;;3.70;93.40;;;;;;5008331;28;20449;-38
2021/04/22 03:35:18;;;;;;;15.90;4.07;;;3.70;93.40;;;;;;4996264;28;20046;-38
2021/04/22 03:37:44;;;;;;;10.73;3.78;;;3.70;93.50;;;;;;5008786;28;20034;-38
2021/04/22 03:40:12;;;;;;;19.52;5.25;;;3.70;93.70;;;;;;4995937;28;20041;-37
2021/04/22 03:42:42;;;;;;;23.33;5.03;;;3.60;93.50;;;;;;5008354;28;20547;-38
2021/04/22 03:45:10;;;;;;;26.73;5.82;;;3.60;93.50;;;;;;4995557;28;20654;-38
2021/04/22 03:47:36;;;;;;;20.45;5.35;;;3.60;93.60;;;;;;4990012;28;20022;-35
2021/04/22 03:50:04;;;;;;;18.83;5.13;;;3.60;93.60;;;;;;4998603;28;20032;-37
2021/04/22 03:52:30;;;;;;;20.95;5.07;;;3.50;93.70;;;;;;4990470;28;20080;-39
2021/04/22 03:54:55;;;;;;;20.17;5.88;;;3.50;93.80;;;;;;4996082;28;20018;-36
2021/04/22 03:57:21;;;;;;;15.98;5.38;;;3.50;93.80;;;;;;4993689;28;20054;-36
2021/04/22 03:59:46;;;;;;;21.67;5.22;;;3.50;93.80;;;;;;4991782;28;20076;-36
2021/04/22 04:02:12;;;;;;;18.73;4.90;;;3.50;93.90;;;;;;4988512;28;20023;-38
2021/04/22 04:04:37;;;;;;;20.55;5.25;;;3.50;93.90;;;;;;4993167;28;20520;-40
2021/04/22 04:07:03;;;;;;;13.98;5.05;;;3.50;93.90;;;;;;4997883;28;20612;-37
2021/04/22 04:09:29;;;;;;;19.95;4.38;;;3.50;93.90;;;;;;5006645;28;20073;-38
2021/04/22 04:11:54;;;;;;;14.70;4.93;;;3.50;93.80;;;;;;4996860;28;20017;-37
2021/04/22 04:14:20;;;;;;;18.55;6.28;;;3.60;93.80;;;;;;5006783;28;20121;-37
2021/04/22 04:16:46;;;;;;;23.33;4.50;;;3.60;93.70;;;;;;4996299;28;20080;-37
2021/04/22 04:19:14;;;;;;;23.38;5.50;;;3.70;93.70;;;;;;5007844;28;20029;-36
2021/04/22 04:21:39;;;;;;;20.75;6.07;;;3.70;93.60;;;;;;4995103;28;20023;-38
2021/04/22 04:24:05;;;;;;;22.70;4.90;;;3.70;93.50;;;;;;5007804;28;20273;-35
2021/04/22 04:26:31;;;;;;;18.65;4.38;;;3.70;93.50;;;;;;4995134;28;20022;-38
2021/04/22 04:28:56;;;;;;;13.93;4.25;;;3.80;93.40;;;;;;5006925;28;20342;-37
2021/04/22 04:31:22;;;;;;;14.88;3.58;;;3.70;93.40;;;;;;4998685;28;20027;-33
2021/04/22 04:33:49;;;;;;;14.32;3.97;;;3.80;93.40;;;;;;5004388;28;20172;-37
2021/04/22 04:36:15;;;;;;;17.27;5.07;;;3.80;93.30;;;;;;5000337;28;20038;-39
2021/04/22 04:38:41;;;;;;;9.98;3.35;;;3.80;93.20;;;;;;5001563;28;20034;-35
2021/04/22 04:41:06;;;;;;;9.65;3.22;;;3.90;93.10;;;;;;5002229;28;20025;-36
2021/04/22 04:43:32;;;;;;;10.02;3.45;;;4.00;93.00;;;;;;4999384;28;20129;-36
2021/04/22 04:45:57;;;;;;;9.50;3.50;;;4.10;92.80;;;;;;5005669;28;20876;-38
2021/04/22 04:48:23;;;;;;;10.35;2.88;;;4.10;92.60;;;;;;4996966;28;20622;-35
2021/04/22 04:50:49;;;;;;;9.73;2.35;;;4.20;92.40;;;;;;5005523;28;20222;-37
2021/04/22 04:53:14;;;;;;;11.80;3.17;;;4.30;92.40;;;;;;4996801;28;20049;-38
2021/04/22 04:55:40;;;;;;;10.65;2.53;;;4.40;92.20;;;;;;5006221;28;20022;-36
2021/04/22 04:58:09;;;;;;;11.60;3.25;;;4.40;92.00;;;;;;4996060;28;20397;-38
2021/04/22 05:00:35;;;;;;;8.75;2.33;;;4.50;91.80;;;;;;5000445;28;20022;-39
2021/04/22 05:03:00;;;;;;;9.35;2.20;;;4.60;91.80;;;;;;4998582;28;20048;-39
2021/04/22 05:05:26;;;;;;;7.13;2.10;;;4.60;91.70;;;;;;4987843;28;20034;-37
2021/04/22 05:07:51;;;;;;;7.85;2.13;;;4.70;91.60;;;;;;4998913;28;20021;-38
2021/04/22 05:10:17;;;;;;;9.55;2.70;;;4.70;91.50;;;;;;4987910;28;20638;-37
2021/04/22 05:12:43;;;;;;;7.72;2.50;;;4.80;91.30;;;;;;4996587;28;20402;-37
2021/04/22 05:15:09;;;;;;;12.90;2.88;;;4.80;91.30;;;;;;4990248;28;20482;-37
2021/04/22 05:17:35;;;;;;;8.85;3.58;;;4.90;91.20;;;;;;4993303;28;20052;-39
2021/04/22 05:20:00;;;;;;;12.48;3.03;;;4.90;91.10;;;;;;4992963;28;20668;-41
2021/04/22 05:22:26;;;;;;;12.93;2.83;;;4.90;91.00;;;;;;4991012;28;20576;-37
2021/04/22 05:24:51;;;;;;;8.90;2.50;;;4.90;90.90;;;;;;4997908;28;20441;-39
2021/04/22 05:27:17;;;;;;;14.02;3.22;;;4.90;90.80;;;;;;4996076;28;20038;-32
2021/04/22 05:29:43;;;;;;;10.57;2.60;;;4.90;90.60;;;;;;4994397;28;20093;-42
2021/04/22 05:32:09;;;;;;;16.10;3.45;;;4.90;90.50;;;;;;4986748;28;20026;-38
2021/04/22 05:34:34;;;;;;;16.55;3.78;;;5.00;90.40;;;;;;4997227;28;20032;-37
2021/04/22 05:37:00;;;;;;;10.68;2.88;;;4.90;90.30;;;;;;4986103;28;20094;-40
2021/04/22 05:39:26;;;;;;;10.90;2.58;;;4.90;90.10;;;;;;4992007;28;20030;-39
2021/04/22 05:41:55;;;;;;;10.77;3.17;;;5.00;90.10;;;;;;5004974;28;20022;-39
2021/04/22 05:44:21;;;;;;;10.90;2.60;;;5.00;90.20;;;;;;5000408;28;20053;-38
2021/04/22 05:46:46;;;;;;;16.83;3.10;;;5.00;90.10;;;;;;4986158;28;20050;-37
2021/04/22 05:49:18;;;;;;;11.43;2.63;;;5.00;90.20;;;;;;4991286;28;20034;-39
2021/04/22 05:51:44;;;;;;;9.65;2.38;;;5.00;90.20;;;;;;4985905;28;20018;-39
2021/04/22 05:54:10;;;;;;;9.25;2.78;;;5.00;90.20;;;;;;4995607;28;20040;-40
2021/04/22 05:56:37;;;;;;;8.40;2.45;;;5.10;90.20;;;;;;4988704;28;20037;-39
2021/04/22 05:59:03;;;;;;;9.43;3.10;;;5.10;90.20;;;;;;4993223;28;20464;-34
2021/04/22 06:01:29;;;;;;;7.60;2.40;;;5.20;90.10;;;;;;5002162;28;20041;-39
2021/04/22 06:03:54;;;;;;;11.00;2.88;;;5.20;90.00;;;;;;4998618;28;20042;-36
2021/04/22 06:06:20;;;;;;;15.00;3.25;;;5.30;89.80;;;;;;4997234;28;20033;-39
2021/04/22 06:08:49;;;;;;;14.35;3.03;;;5.40;89.50;;;;;;5002483;28;20033;-37
2021/04/22 06:11:14;;;;;;;9.63;3.20;;;5.50;89.20;;;;;;4994175;28;20590;-36
2021/04/22 06:13:40;;;;;;;11.88;2.95;;;5.60;88.70;;;;;;5001938;28;20101;-37
2021/04/22 06:16:06;;;;;;;19.45;3.95;;;5.70;88.40;;;;;;4996715;28;20053;-35
2021/04/22 06:18:32;;;;;;;8.68;2.63;;;5.80;87.80;;;;;;4985780;28;20026;-34
2021/04/22 06:20:57;;;;;;;11.45;3.22;;;5.80;87.80;;;;;;4993817;28;20048;-38
2021/04/22 06:23:25;;;;;;;7.47;2.47;;;5.90;87.80;;;;;;5006038;28;20145;-38
2021/04/22 06:25:50;;;;;;;14.38;3.17;;;6.00;87.70;;;;;;4992756;28;20033;-39
2021/04/22 06:28:16;;;;;;;12.75;2.70;;;6.10;87.30;;;;;;5005121;28;20030;-36
2021/04/22 06:30:42;;;;;;;9.30;2.60;;;6.20;87.60;;;;;;4993166;28;20026;-40
2021/04/22 06:33:07;;;;;;;8.73;2.40;;;6.30;87.30;;;;;;5005088;28;20060;-39
2021/04/22 06:35:33;;;;;;;9.43;2.85;;;6.40;87.30;;;;;;4993755;28;20093;-38
2021/04/22 06:37:58;;;;;;;9.90;2.30;;;6.60;86.50;;;;;;5002383;28;20121;-38
2021/04/22 06:40:27;;;;;;;9.38;2.67;;;6.70;86.70;;;;;;4997558;28;20033;-39
2021/04/22 06:42:53;;;;;;;11.80;2.47;;;6.80;85.70;;;;;;5000555;28;20030;-38
2021/04/22 06:45:20;;;;;;;10.95;3.17;;;6.80;84.50;;;;;;5000148;28;20116;-38
2021/04/22 06:47:47;;;;;;;11.48;2.53;;;6.90;85.30;;;;;;4987963;28;20106;-36
2021/04/22 06:50:15;;;;;;;8.55;2.40;;;6.90;85.30;;;;;;4987451;28;20137;-38
2021/04/22 06:52:41;;;;;;;6.40;2.13;;;7.00;85.20;;;;;;4993425;28;20108;-35
2021/04/22 06:55:12;;;;;;;7.85;2.55;;;7.10;85.30;;;;;;4986487;28;20094;-36
2021/04/22 06:57:37;;;;;;;14.38;3.20;;;7.20;84.60;;;;;;4994102;28;20107;-38
2021/04/22 07:00:23;;;;;;;12.18;2.78;;;7.30;83.80;;;;;;5003965;28;20485;-39
2021/04/22 07:02:50;;;;;;;10.10;2.60;;;7.30;83.90;;;;;;4993457;28;20026;-38
2021/04/22 07:05:17;;;;;;;10.48;2.40;;;7.40;83.60;;;;;;5004090;28;20026;-35
2021/04/22 07:07:42;;;;;;;6.22;2.08;;;7.40;83.90;;;;;;4994222;28;20071;-37
2021/04/22 07:10:09;;;;;;;10.38;2.10;;;7.40;83.90;;;;;;5004292;28;20030;-36
2021/04/22 07:12:35;;;;;;;8.73;2.33;;;7.40;83.80;;;;;;4993594;28;20041;-39
2021/04/22 07:15:02;;;;;;;16.15;3.60;;;7.50;84.00;;;;;;5005246;28;20042;-38
2021/04/22 07:17:27;;;;;;;11.48;2.58;;;7.70;83.50;;;;;;4992120;28;20030;-38
2021/04/22 07:19:56;;;;;;;8.45;2.15;;;7.80;83.50;;;;;;5005145;28;20034;-35
2021/04/22 07:22:25;;;;;;;9.35;2.58;;;7.90;83.20;;;;;;4993502;28;20030;-38
2021/04/22 07:24:52;;;;;;;11.70;2.85;;;7.90;82.70;;;;;;4985338;28;20704;-37
2021/04/22 07:27:18;;;;;;;10.95;2.75;;;8.00;82.30;;;;;;4995668;28;20099;-39
2021/04/22 07:29:45;;;;;;;9.30;2.92;;;8.00;82.60;;;;;;4987156;28;20482;-40
2021/04/22 07:32:12;;;;;;;12.93;2.90;;;8.00;82.30;;;;;;4992428;28;20105;-38
2021/04/22 07:34:38;;;;;;;9.30;2.88;;;8.00;80.80;;;;;;4989924;28;20022;-39
2021/04/22 07:37:05;;;;;;;9.93;3.15;;;8.00;81.10;;;;;;4989954;28;20040;-36
2021/04/22 07:39:33;;;;;;;14.07;2.65;;;8.00;81.30;;;;;;4992537;28;20046;-39
2021/04/22 07:41:59;;;;;;;8.95;2.70;;;8.10;80.60;;;;;;4988200;28;20516;-41
2021/04/22 07:44:25;;;;;;;13.00;3.55;;;8.10;81.10;;;;;;4993569;28;20458;-39
2021/04/22 07:46:51;;;;;;;11.18;2.83;;;8.20;81.10;;;;;;4986481;28;20474;-36
2021/04/22 07:49:17;;;;;;;13.75;3.58;;;8.30;80.60;;;;;;4996182;28;20106;-36
2021/04/22 07:51:43;;;;;;;11.82;2.83;;;8.40;79.60;;;;;;4986075;28;20544;-39
2021/04/22 07:54:08;;;;;;;13.63;2.60;;;8.30;78.10;;;;;;4996052;28;20120;-38
2021/04/22 07:56:34;;;;;;;13.02;2.90;;;8.30;79.00;;;;;;4985063;28;20050;-39
2021/04/22 07:58:59;;;;;;;8.40;2.58;;;8.30;79.00;;;;;;4992018;28;20109;-40
2021/04/22 08:01:25;;;;;;;11.07;2.80;;;8.30;79.70;;;;;;4992361;28;20133;-38
2021/04/22 08:03:51;;;;;;;16.00;3.35;;;8.30;79.90;;;;;;4996862;28;20125;-37
2021/04/22 08:06:17;;;;;;;13.05;3.30;;;8.30;78.70;;;;;;4984999;28;20023;-38
2021/04/22 08:08:43;;;;;;;14.65;3.67;;;8.30;78.10;;;;;;4995702;28;20027;-37
2021/04/22 08:11:09;;;;;;;7.75;2.70;;;8.30;78.10;;;;;;4984701;28;20026;-36
2021/04/22 08:13:35;;;;;;;19.50;4.32;;;8.30;78.40;;;;;;4992594;28;20081;-38
2021/04/22 08:16:00;;;;;;;11.57;3.05;;;8.30;78.90;;;;;;4992694;28;20133;-38
2021/04/22 08:18:27;;;;;;;8.35;3.17;;;8.30;79.10;;;;;;4993490;28;20037;-37
2021/04/22 08:20:56;;;;;;;14.55;2.85;;;8.40;78.70;;;;;;4994825;28;20018;-38
2021/04/22 08:23:23;;;;;;;13.38;2.65;;;8.60;78.10;;;;;;4991443;28;20029;-38
2021/04/22 08:25:53;;;;;;;19.77;3.88;;;8.90;78.10;;;;;;5001484;28;20097;-40
2021/04/22 08:28:22;;;;;;;12.50;3.47;;;9.10;77.30;;;;;;5002964;28;20118;-37
2021/04/22 08:30:59;;;;;;;15.23;3.80;;;9.20;75.70;;;;;;5000071;28;20390;-38
2021/04/22 08:33:34;;;;;;;8.10;2.78;;;9.20;75.80;;;;;;5001780;28;20022;-38
2021/04/22 08:35:59;;;;;;;10.13;2.90;;;9.30;76.50;;;;;;4997317;28;20370;-37
2021/04/22 08:38:28;;;;;;;9.25;3.05;;;9.30;76.40;;;;;;5005473;28;20030;-36
2021/04/22 08:40:55;;;;;;;12.63;3.85;;;9.40;76.60;;;;;;4995224;28;20050;-38
2021/04/22 08:43:22;;;;;;;12.10;3.22;;;9.60;76.40;;;;;;4989072;28;20118;-37
2021/04/22 08:45:49;;;;;;;8.15;3.05;;;9.80;75.10;;;;;;4993537;28;20056;-36
2021/04/22 08:48:15;;;;;;;16.27;3.72;;;10.00;74.30;;;;;;4987775;28;20037;-40
2021/04/22 08:50:44;;;;;;;11.07;2.78;;;10.10;74.30;;;;;;4989897;28;20474;-37
2021/04/22 08:53:29;;;;;;;12.73;3.72;;;10.10;73.70;;;;;;4984490;28;20045;-36
2021/04/22 08:55:55;;;;;;;10.75;2.72;;;9.90;72.10;;;;;;4996014;28;20037;-39
2021/04/22 08:58:21;;;;;;;13.68;3.13;;;9.80;73.50;;;;;;5007102;28;20026;-38
2021/04/22 09:00:50;;;;;;;10.68;2.72;;;9.70;73.00;;;;;;4996849;28;20075;-39
2021/04/22 09:03:18;;;;;;;9.55;2.58;;;9.60;72.50;;;;;;5006140;28;20276;-38
2021/04/22 09:05:43;;;;;;;9.23;2.60;;;9.40;72.70;;;;;;5001656;28;20054;-39
2021/04/22 09:08:09;;;;;;;7.78;2.55;;;9.40;73.30;;;;;;4988183;28;20116;-38
2021/04/22 09:10:35;;;;;;;9.48;2.25;;;9.40;73.30;;;;;;4995540;28;20148;-36
2021/04/22 09:13:16;;;;;;;7.70;3.10;;;9.40;73.30;;;;;;4990698;28;20030;-36
2021/04/22 09:15:44;;;;;;;12.15;3.72;;;9.50;73.30;;;;;;4996693;28;20030;-37
2021/04/22 09:18:17;;;;;;;6.10;2.60;;;9.60;72.60;;;;;;5001833;28;20029;-38
2021/04/22 09:20:47;;;;;;;8.07;2.80;;;9.80;71.20;;;;;;4993776;28;20029;-37
2021/04/22 09:23:20;;;;;;;9.85;3.25;;;9.90;71.50;;;;;;4992019;28;20034;-40
2021/04/22 09:25:52;;;;;;;;;;;10.10;71.00;;;;;;4991740;28;20018;-37
2021/04/22 09:28:18;;;;;;;7.63;2.40;;;10.20;70.40;;;;;;4991978;28;19921;-38
2021/04/22 09:30:46;;;;;;;12.63;2.80;;;10.20;69.50;;;;;;4992036;28;20087;-38
2021/04/22 09:33:23;;;;;;;9.07;2.92;;;10.30;69.60;;;;;;4993945;28;20022;-39
2021/04/22 09:35:50;;;;;;;13.52;3.33;;;10.30;69.40;;;;;;4990007;28;20475;-39
2021/04/22 09:38:17;;;;;;;12.25;2.80;;;10.30;69.00;;;;;;4994957;28;20438;-37
2021/04/22 09:40:44;;;;;;;14.00;3.10;;;10.30;69.00;;;;;;5001431;28;20052;-36
2021/04/22 09:43:13;;;;;;;10.10;2.70;;;10.20;69.40;;;;;;4999842;28;20079;-37
2021/04/22 09:45:44;;;;;;;12.02;3.92;;;10.20;69.70;;;;;;5004698;28;20030;-38
2021/04/22 09:48:28;;;;;;;8.18;3.08;;;10.30;68.80;;;;;;5004142;28;20425;-39
2021/04/22 09:50:53;;;;;;;11.30;2.90;;;10.30;69.00;;;;;;5002158;28;20114;-36
2021/04/22 09:53:21;;;;;;;7.00;2.67;;;10.50;69.60;;;;;;4995640;28;20113;-38
2021/04/22 09:55:47;;;;;;;7.75;2.53;;;10.70;69.50;;;;;;5000489;28;20117;-38
2021/04/22 09:58:27;;;;;;;14.43;3.55;;;10.90;68.60;;;;;;4994963;28;20132;-38
2021/04/22 10:00:53;;;;;;;7.70;2.90;;;11.10;67.60;;;;;;5001092;28;20109;-35
2021/04/22 10:03:19;;;;;;;11.93;2.95;;;11.10;67.00;;;;;;5001921;28;20042;-37
2021/04/22 10:05:54;;;;;;;7.97;2.58;;;10.90;66.20;;;;;;5005118;28;20033;-38
2021/04/22 10:08:19;;;;;;;9.85;2.50;;;10.80;66.60;;;;;;4998615;28;20164;-37
2021/04/22 10:11:02;;;;;;;8.13;2.85;;;10.60;67.20;;;;;;5002065;28;20108;-36
2021/04/22 10:13:29;;;;;;;18.92;3.70;;;10.60;68.10;;;;;;4997856;28;20022;-38
2021/04/22 10:15:57;;;;;;;7.75;2.33;;;10.60;66.80;;;;;;5005323;28;20132;-35
2021/04/22 10:18:35;;;;;;;9.30;3.42;;;10.50;67.40;;;;;;4994443;28;20174;-37
2021/04/22 10:21:01;;;;;;;10.40;2.90;;;10.50;67.70;;;;;;5005245;28;20122;-38
2021/04/22 10:23:29;;;;;;;10.45;2.92;;;10.50;66.80;;;;;;4993008;28;20124;-38
2021/04/22 10:25:57;;;;;;;8.68;2.80;;;10.50;66.90;;;;;;5005424;28;20087;-36
2021/04/22 10:28:24;;;;;;;8.13;2.53;;;10.50;67.00;;;;;;4992445;28;20030;-39
2021/04/22 10:30:54;;;;;;;9.52;3.53;;;10.50;64.30;;;;;;5003699;28;20033;-36
2021/04/22 10:33:20;;;;;;;7.85;2.30;;;10.50;64.30;;;;;;4996620;28;20673;-37
2021/04/22 10:35:47;;;;;;;6.43;2.10;;;10.40;65.30;;;;;;5001892;28;20026;-39
2021/04/22 10:38:14;;;;;;;7.72;2.45;;;10.30;66.20;;;;;;5000916;28;20038;-38
2021/04/22 10:40:44;;;;;;;14.43;3.63;;;10.40;66.90;;;;;;4990974;28;20023;-40
2021/04/22 10:43:22;;;;;;;8.52;2.60;;;10.40;67.10;;;;;;4998670;28;20444;-39
2021/04/22 10:45:48;;;;;;;10.18;3.45;;;10.40;67.10;;;;;;4991657;28;20030;-38
2021/04/22 10:48:14;;;;;;;8.35;2.60;;;10.50;66.90;;;;;;4988609;28;20470;-38
2021/04/22 10:50:42;;;;;;;10.02;2.90;;;10.40;67.00;;;;;;4994808;28;20038;-38
2021/04/22 10:53:11;;;;;;;12.55;3.58;;;10.40;66.90;;;;;;4992778;28;20059;-38
2021/04/22 10:55:39;;;;;;;6.28;2.45;;;10.50;67.60;;;;;;4995459;28;20031;-38
2021/04/22 10:58:18;;;;;;;6.93;2.63;;;10.60;67.20;;;;;;4986935;28;20022;-39
2021/04/22 11:00:50;;;;;;;7.53;2.80;;;10.70;66.90;;;;;;4998083;28;20049;-38
2021/04/22 11:03:37;;;;;;;8.35;3.05;;;10.70;65.50;;;;;;5002365;28;20104;-35
2021/04/22 11:06:21;;;;;;;8.68;2.67;;;10.70;66.10;;;;;;5002101;28;20034;-37
2021/04/22 11:08:50;;;;;;;8.13;2.72;;;10.70;66.70;;;;;;5001204;28;20329;-36
2021/04/22 11:11:21;;;;;;;7.90;3.38;;;10.80;67.00;;;;;;4999596;28;20655;-36
2021/04/22 11:13:49;;;;;;;8.05;2.33;;;10.80;66.70;;;;;;5003410;28;20026;-36
2021/04/22 11:16:15;;;;;;;9.95;2.95;;;10.90;66.90;;;;;;5000072;28;20116;-36
2021/04/22 11:18:43;;;;;;;12.63;3.05;;;11.00;66.80;;;;;;5002957;28;20110;-36
2021/04/22 11:21:23;;;;;;;9.57;2.70;;;11.00;65.70;;;;;;4996037;28;20076;-37
2021/04/22 11:23:50;;;;;;;6.72;2.15;;;11.00;64.50;;;;;;5003058;28;20061;-36
2021/04/22 11:26:34;;;;;;;8.98;3.10;;;11.00;64.40;;;;;;4996971;28;20457;-39
2021/04/22 11:29:10;;;;;;;11.65;2.97;;;11.10;64.30;;;;;;4987180;28;20623;-39
2021/04/22 11:31:44;;;;;;;11.75;2.83;;;11.20;64.00;;;;;;4999393;28;20497;-39
2021/04/22 11:34:10;;;;;;;7.70;2.78;;;11.20;64.40;;;;;;5001412;28;20105;-39
2021/04/22 11:36:49;;;;;;;9.98;3.03;;;11.20;64.80;;;;;;4995966;28;20101;-37
2021/04/22 11:39:28;;;;;;;9.05;2.83;;;11.20;64.80;;;;;;5002092;28;20392;-36
2021/04/22 11:41:56;;;;;;;5.95;2.30;;;11.20;64.70;;;;;;4998628;28;20034;-38
2021/04/22 11:44:38;;;;;;;13.00;3.45;;;11.30;64.60;;;;;;4999961;28;20118;-39
2021/04/22 11:47:15;;;;;;;8.57;2.60;;;11.30;64.70;;;;;;5000039;28;20038;-41
2021/04/22 11:49:41;;;;;;;8.20;2.47;;;11.30;65.00;;;;;;5006526;28;20029;-37
2021/04/22 11:52:23;;;;;;;8.27;2.72;;;11.40;65.70;;;;;;4999468;28;20057;-38
2021/04/22 11:54:51;;;;;;;8.50;2.60;;;11.40;64.80;;;;;;4989996;28;20117;-34
2021/04/22 11:57:17;;;;;;;6.32;2.63;;;11.50;63.00;;;;;;4999245;28;20062;-39
2021/04/22 11:59:51;;;;;;;3.95;1.60;;;11.50;64.10;;;;;;4988569;28;20073;-38
2021/04/22 12:02:17;;;;;;;6.20;2.60;;;11.50;64.10;;;;;;4997488;28;20020;-39
2021/04/22 12:04:48;;;;;;;6.38;2.42;;;11.60;63.90;;;;;;5007347;28;20578;-40
2021/04/22 12:07:19;;;;;;;6.30;2.85;;;11.60;63.20;;;;;;4995800;28;20096;-38
2021/04/22 12:09:51;;;;;;;9.75;2.60;;;11.60;63.20;;;;;;5007965;28;20474;-37
2021/04/22 12:12:24;;;;;;;10.63;3.03;;;11.60;64.00;;;;;;5002066;28;20138;-41
2021/04/22 12:14:55;;;;;;;11.55;2.90;;;11.70;62.50;;;;;;4988592;28;20109;-38
2021/04/22 12:17:33;;;;;;;6.82;2.45;;;11.70;62.70;;;;;;5000659;28;20549;-39
2021/04/22 12:20:05;;;;;;;5.95;2.30;;;11.70;62.80;;;;;;4988376;28;20124;-36
2021/04/22 12:22:46;;;;;;;9.10;2.58;;;11.70;63.30;;;;;;5000056;28;20041;-38
2021/04/22 12:25:15;;;;;;;9.73;3.53;;;11.70;63.50;;;;;;4988703;28;20034;-37
2021/04/22 12:27:56;;;;;;;10.75;3.35;;;11.70;62.90;;;;;;4999761;28;20507;-38
2021/04/22 12:30:34;;;;;;;8.80;2.88;;;11.80;63.00;;;;;;5004224;28;20018;-39
2021/04/22 12:33:06;;;;;;;10.20;2.80;;;11.80;63.10;;;;;;4993305;28;20172;-39
2021/04/22 12:35:32;;;;;;;6.55;2.40;;;11.90;64.00;;;;;;5007785;28;20049;-38
2021/04/22 12:38:25;;;;;;;8.15;3.17;;;12.00;64.20;;;;;;4994818;28;20038;-37
2021/04/22 12:40:59;;;;;;;8.17;3.03;;;12.10;64.90;;;;;;5007444;28;20461;-38
2021/04/22 12:43:29;;;;;;;7.72;3.20;;;12.10;65.10;;;;;;4994618;28;20049;-38
2021/04/22 12:45:56;;;;;;;7.47;2.63;;;12.10;66.00;;;;;;5007367;28;20033;-39
2021/04/22 12:48:21;;;;;;;5.15;1.88;;;12.10;65.40;;;;;;4994491;28;20022;-39
2021/04/22 12:50:48;;;;;;;10.73;2.50;;;12.10;65.80;;;;;;5006947;28;20665;-39
2021/04/22 12:53:20;;;;;;;6.65;2.60;;;12.20;66.00;;;;;;4996354;28;20568;-37